createdAt,value
2018-06-08T00:01:25.302Z,12.93
2018-06-08T00:03:53.867Z,11.07
2018-06-08T00:06:22.591Z,12.33
2018-06-08T00:08:51.323Z,12.87
2018-06-08T00:11:19.984Z,13.43
2018-06-08T00:13:48.659Z,11.63
2018-06-08T00:16:17.312Z,12.03
2018-06-08T00:18:46.035Z,12.40
2018-06-08T00:21:14.535Z,11.67
2018-06-08T00:23:42.874Z,11.63
2018-06-08T00:26:11.375Z,12.53
2018-06-08T00:28:39.966Z,13.37
2018-06-08T00:31:08.694Z,13.53
2018-06-08T00:33:37.576Z,14.77
2018-06-08T00:36:06.324Z,14.67
2018-06-08T00:38:34.866Z,12.90
2018-06-08T00:41:03.376Z,12.77
2018-06-08T00:43:32.162Z,14.13
2018-06-08T00:46:00.775Z,13.53
2018-06-08T00:48:29.251Z,11.73
2018-06-08T00:50:57.652Z,11.67
2018-06-08T00:53:26.559Z,12.80
2018-06-08T00:55:55.101Z,12.87
2018-06-08T00:58:23.675Z,12.70
2018-06-08T01:00:52.359Z,12.37
2018-06-08T01:03:20.954Z,12.57
2018-06-08T01:05:49.500Z,13.97
2018-06-08T01:08:18.117Z,12.03
2018-06-08T01:10:46.614Z,13.97
2018-06-08T01:13:15.143Z,12.60
2018-06-08T01:15:43.870Z,11.97
2018-06-08T01:18:12.387Z,12.37
2018-06-08T01:20:40.991Z,13.40
2018-06-08T01:23:09.499Z,13.40
2018-06-08T01:25:37.985Z,13.67
2018-06-08T01:28:06.702Z,11.93
2018-06-08T01:30:35.228Z,12.27
2018-06-08T01:33:03.749Z,11.20
2018-06-08T01:35:32.384Z,14.50
2018-06-08T01:38:00.903Z,13.73
2018-06-08T01:40:29.427Z,12.03
2018-06-08T01:42:57.971Z,12.57
2018-06-08T01:45:26.573Z,12.00
2018-06-08T01:47:55.084Z,13.67
2018-06-08T01:50:23.564Z,13.43
2018-06-08T01:52:52.315Z,14.37
2018-06-08T01:55:20.659Z,13.03
2018-06-08T01:57:49.185Z,14.97
2018-06-08T02:00:17.823Z,14.60
2018-06-08T02:02:46.630Z,15.77
2018-06-08T02:05:15.131Z,14.73
2018-06-08T02:07:43.613Z,14.73
2018-06-08T02:10:12.280Z,13.73
2018-06-08T02:12:40.822Z,14.43
2018-06-08T02:15:09.510Z,13.37
2018-06-08T02:17:37.995Z,18.27
2018-06-08T02:20:06.553Z,13.20
2018-06-08T02:22:35.110Z,13.27
2018-06-08T02:25:03.819Z,13.73
2018-06-08T02:27:32.292Z,15.50
2018-06-08T02:30:00.992Z,13.93
2018-06-08T02:32:29.743Z,13.97
2018-06-08T02:34:58.156Z,13.73
2018-06-08T02:37:26.639Z,13.40
2018-06-08T02:39:55.153Z,14.73
2018-06-08T02:42:23.715Z,17.00
2018-06-08T02:44:52.214Z,14.87
2018-06-08T02:47:20.766Z,14.10
2018-06-08T02:49:49.249Z,12.77
2018-06-08T02:52:17.980Z,12.70
2018-06-08T02:54:46.492Z,14.70
2018-06-08T02:57:14.667Z,16.07
2018-06-08T02:59:43.623Z,13.77
2018-06-08T03:02:12.684Z,13.93
2018-06-08T03:04:41.394Z,15.10
2018-06-08T03:07:09.968Z,16.00
2018-06-08T03:09:38.747Z,14.97
2018-06-08T03:12:07.340Z,14.87
2018-06-08T03:14:35.968Z,13.33
2018-06-08T03:17:04.646Z,15.23
2018-06-08T03:19:33.163Z,14.23
2018-06-08T03:22:01.660Z,12.73
2018-06-08T03:24:30.400Z,14.80
2018-06-08T03:26:58.964Z,13.63
2018-06-08T03:29:27.467Z,13.80
2018-06-08T03:31:56.038Z,13.70
2018-06-08T03:34:24.819Z,13.07
2018-06-08T03:36:53.348Z,16.23
2018-06-08T03:39:21.973Z,15.23
2018-06-08T03:41:50.550Z,13.60
2018-06-08T03:44:19.479Z,15.50
2018-06-08T03:46:48.402Z,12.73
2018-06-08T03:49:17.057Z,15.80
2018-06-08T03:51:45.614Z,13.37
2018-06-08T03:54:14.124Z,12.87
2018-06-08T03:56:42.676Z,12.90
2018-06-08T03:59:11.427Z,16.03
2018-06-08T04:01:40.114Z,14.90
2018-06-08T04:04:08.627Z,15.47
2018-06-08T04:06:37.523Z,14.43
2018-06-08T04:09:08.031Z,17.50
2018-06-08T04:11:36.628Z,29.93
2018-06-08T04:14:05.212Z,21.60
2018-06-08T04:16:33.717Z,18.30
2018-06-08T04:19:02.272Z,15.83
2018-06-08T04:21:30.931Z,15.27
2018-06-08T04:23:59.466Z,13.03
2018-06-08T04:26:28.235Z,14.30
2018-06-08T04:28:57.103Z,13.77
2018-06-08T04:31:25.672Z,12.77
2018-06-08T04:33:54.145Z,12.83
2018-06-08T04:36:22.946Z,14.60
2018-06-08T04:38:51.720Z,11.93
2018-06-08T04:41:20.556Z,12.83
2018-06-08T04:43:49.065Z,13.57
2018-06-08T04:46:17.241Z,18.83
2018-06-08T04:48:45.938Z,14.10
2018-06-08T04:51:14.586Z,17.53
2018-06-08T04:53:43.144Z,13.73
2018-06-08T04:56:11.786Z,13.53
2018-06-08T04:58:40.322Z,13.40
2018-06-08T05:01:08.839Z,13.70
2018-06-08T05:03:37.538Z,14.30
2018-06-08T05:06:06.040Z,13.20
2018-06-08T05:08:34.699Z,12.23
2018-06-08T05:11:03.227Z,13.83
2018-06-08T05:13:31.883Z,13.93
2018-06-08T05:16:00.545Z,13.73
2018-06-08T05:18:29.116Z,14.60
2018-06-08T05:20:58.120Z,12.13
2018-06-08T05:23:26.640Z,15.70
2018-06-08T05:25:55.155Z,14.60
2018-06-08T05:28:23.811Z,14.40
2018-06-08T05:30:52.590Z,14.70
2018-06-08T05:33:21.431Z,13.70
2018-06-08T05:35:50.073Z,14.23
2018-06-08T05:38:18.745Z,14.17
2018-06-08T05:40:47.239Z,13.60
2018-06-08T05:43:15.771Z,17.43
2018-06-08T05:45:44.615Z,14.33
2018-06-08T05:48:13.404Z,15.63
2018-06-08T05:50:41.962Z,11.67
2018-06-08T05:53:10.463Z,16.77
2018-06-08T05:55:39.267Z,13.17
2018-06-08T05:58:08.007Z,13.77
2018-06-08T06:00:36.475Z,12.77
2018-06-08T06:03:05.367Z,14.23
2018-06-08T06:05:33.843Z,16.27
2018-06-08T06:08:02.720Z,12.40
2018-06-08T06:10:31.323Z,13.63
2018-06-08T06:13:00.454Z,13.53
2018-06-08T06:15:28.986Z,17.23
2018-06-08T06:17:57.639Z,15.17
2018-06-08T06:20:26.187Z,14.90
2018-06-08T06:22:54.701Z,15.37
2018-06-08T06:25:23.191Z,13.47
2018-06-08T06:27:51.737Z,14.37
2018-06-08T06:30:20.527Z,14.40
2018-06-08T06:32:49.160Z,16.53
2018-06-08T06:35:17.698Z,13.67
2018-06-08T06:37:46.200Z,16.17
2018-06-08T06:40:14.736Z,15.20
2018-06-08T06:42:43.479Z,17.60
2018-06-08T06:45:12.272Z,17.20
2018-06-08T06:47:41.152Z,17.03
2018-06-08T06:50:09.643Z,15.67
2018-06-08T06:52:38.259Z,17.50
2018-06-08T06:55:06.840Z,15.55
2018-06-08T06:57:35.588Z,15.85
2018-06-08T07:00:04.061Z,14.95
2018-06-08T07:02:32.631Z,17.77
2018-06-08T07:05:05.405Z,17.48
2018-06-08T07:07:33.906Z,15.58
2018-06-08T07:10:02.616Z,20.85
2018-06-08T07:12:31.198Z,16.40
2018-06-08T07:14:59.745Z,15.50
2018-06-08T07:17:28.304Z,19.17
2018-06-08T07:19:56.971Z,21.40
2018-06-08T07:22:25.454Z,18.05
2018-06-08T07:24:53.984Z,16.30
2018-06-08T07:27:22.742Z,15.37
2018-06-08T07:29:51.607Z,16.87
2018-06-08T07:32:20.373Z,20.60
2018-06-08T07:34:49.013Z,15.75
2018-06-08T07:37:17.534Z,17.30
2018-06-08T07:39:46.078Z,21.05
2018-06-08T07:42:14.876Z,19.02
2018-06-08T07:44:44.355Z,18.10
2018-06-08T07:47:13.113Z,19.50
2018-06-08T07:49:41.947Z,18.40
2018-06-08T07:52:10.704Z,19.23
2018-06-08T07:54:39.249Z,20.30
2018-06-08T07:57:08.011Z,22.82
2018-06-08T07:59:36.577Z,19.42
2018-06-08T08:02:05.462Z,18.02
2018-06-08T08:04:34.132Z,22.20
2018-06-08T08:07:02.744Z,21.00
2018-06-08T08:09:31.650Z,22.87
2018-06-08T08:12:00.339Z,21.27
2018-06-08T08:14:28.964Z,21.97
2018-06-08T08:16:57.752Z,21.15
2018-06-08T08:19:26.472Z,21.05
2018-06-08T08:21:55.186Z,22.20
2018-06-08T08:24:24.239Z,22.05
2018-06-08T08:26:52.717Z,20.55
2018-06-08T08:29:21.482Z,22.45
2018-06-08T08:31:50.041Z,22.45
2018-06-08T08:34:18.621Z,22.07
2018-06-08T08:36:47.261Z,24.47
2018-06-08T08:39:16.069Z,21.07
2018-06-08T08:41:44.660Z,19.45
2018-06-08T08:44:13.344Z,18.57
2018-06-08T08:46:41.900Z,25.12
2018-06-08T08:49:10.611Z,22.45
2018-06-08T08:51:39.213Z,21.15
2018-06-08T08:54:07.808Z,20.95
2018-06-08T08:56:36.698Z,21.50
2018-06-08T08:59:05.697Z,21.05
2018-06-08T09:01:34.400Z,21.82
2018-06-08T09:04:02.936Z,19.12
2018-06-08T09:06:31.409Z,17.73
2018-06-08T09:08:59.920Z,20.25
2018-06-08T09:11:28.649Z,19.25
2018-06-08T09:13:57.153Z,17.55
2018-06-08T09:16:25.911Z,20.35
2018-06-08T09:18:54.574Z,21.80
2018-06-08T09:21:23.097Z,19.62
2018-06-08T09:23:51.945Z,20.62
2018-06-08T09:26:20.475Z,20.68
2018-06-08T09:28:49.220Z,19.35
2018-06-08T09:31:17.856Z,20.45
2018-06-08T09:33:46.772Z,16.77
2018-06-08T09:36:15.729Z,20.32
2018-06-08T09:38:44.377Z,17.42
2018-06-08T09:41:12.895Z,17.62
2018-06-08T09:43:41.548Z,19.62
2018-06-08T09:46:10.531Z,23.95
2018-06-08T09:48:39.286Z,20.45
2018-06-08T09:51:07.946Z,21.27
2018-06-08T09:53:36.554Z,20.35
2018-06-08T09:56:05.862Z,19.07
2018-06-08T09:58:34.390Z,21.33
2018-06-08T10:01:03.058Z,20.20
2018-06-08T10:03:31.556Z,18.17
2018-06-08T10:06:00.164Z,20.02
2018-06-08T10:08:29.095Z,19.67
2018-06-08T10:10:58.444Z,18.50
2018-06-08T10:13:27.349Z,18.23
2018-06-08T10:15:56.083Z,17.85
2018-06-08T10:18:24.643Z,21.10
2018-06-08T10:20:53.198Z,20.12
2018-06-08T10:23:21.696Z,21.12
2018-06-08T10:25:50.217Z,19.65
2018-06-08T10:28:19.068Z,21.00
2018-06-08T10:30:47.814Z,24.95
2018-06-08T10:33:16.525Z,21.05
2018-06-08T10:35:45.157Z,20.12
2018-06-08T10:38:13.641Z,22.07
2018-06-08T10:40:42.245Z,23.18
2018-06-08T10:43:10.967Z,19.57
2018-06-08T10:45:40.560Z,21.37
2018-06-08T10:48:09.353Z,20.88
2018-06-08T10:50:38.360Z,21.07
2018-06-08T10:53:06.862Z,22.52
2018-06-08T10:55:35.371Z,24.47
2018-06-08T10:58:03.876Z,26.25
2018-06-08T11:00:32.741Z,23.20
2018-06-08T11:03:01.337Z,25.27
2018-06-08T11:05:30.019Z,21.93
2018-06-08T11:07:58.523Z,19.62
2018-06-08T11:10:27.415Z,21.02
2018-06-08T11:12:55.935Z,23.67
2018-06-08T11:15:24.505Z,24.95
2018-06-08T11:17:53.387Z,22.80
2018-06-08T11:20:21.897Z,20.45
2018-06-08T11:22:51.284Z,24.10
2018-06-08T11:25:19.845Z,35.70
2018-06-08T11:27:48.397Z,25.75
2018-06-08T11:30:16.916Z,22.52
2018-06-08T11:32:45.707Z,25.75
2018-06-08T11:35:14.543Z,27.87
2018-06-08T11:37:43.493Z,26.30
2018-06-08T11:40:11.965Z,28.85
2018-06-08T11:42:40.545Z,28.60
2018-06-08T11:45:09.174Z,35.00
2018-06-08T11:47:37.909Z,34.05
2018-06-08T11:50:06.457Z,31.62
2018-06-08T11:52:35.456Z,32.20
2018-06-08T11:55:04.076Z,30.70
2018-06-08T11:57:32.679Z,28.10
2018-06-08T12:00:01.239Z,28.12
2018-06-08T12:02:29.749Z,27.00
2018-06-08T12:04:58.665Z,27.20
2018-06-08T12:07:27.340Z,25.80
2018-06-08T12:09:56.070Z,26.68
2018-06-08T12:12:24.841Z,28.45
2018-06-08T12:14:53.741Z,27.22
2018-06-08T12:17:22.467Z,24.90
2018-06-08T12:19:51.476Z,32.48
2018-06-08T12:22:20.281Z,31.12
2018-06-08T12:24:48.865Z,29.20
2018-06-08T12:27:17.893Z,34.80
2018-06-08T12:29:46.483Z,34.58
2018-06-08T12:32:15.130Z,40.50
2018-06-08T12:34:44.071Z,35.52
2018-06-08T12:37:12.718Z,36.90
2018-06-08T12:39:41.600Z,40.15
2018-06-08T12:42:10.119Z,37.48
2018-06-08T12:44:38.939Z,36.93
2018-06-08T12:47:07.564Z,37.38
2018-06-08T12:49:36.249Z,39.33
2018-06-08T12:52:07.128Z,36.58
2018-06-08T12:54:35.959Z,38.85
2018-06-08T12:57:04.547Z,36.68
2018-06-08T12:59:33.376Z,37.33
2018-06-08T13:02:02.146Z,38.75
2018-06-08T13:04:30.927Z,49.70
2018-06-08T13:06:59.549Z,47.83
2018-06-08T13:09:28.293Z,49.10
2018-06-08T13:11:56.845Z,54.85
2018-06-08T13:14:25.716Z,52.67
2018-06-08T13:16:54.421Z,49.33
2018-06-08T13:19:23.160Z,57.00
2018-06-08T13:21:51.541Z,59.63
2018-06-08T13:24:20.329Z,56.95
2018-06-08T13:26:49.134Z,56.37
2018-06-08T13:29:17.819Z,60.45
2018-06-08T13:31:46.677Z,63.28
2018-06-08T13:34:15.428Z,59.73
2018-06-08T13:36:44.418Z,58.10
2018-06-08T13:39:13.161Z,58.10
2018-06-08T13:41:41.894Z,84.87
2018-06-08T13:44:10.496Z,79.83
2018-06-08T13:46:44.361Z,81.83
2018-06-08T13:49:13.243Z,95.43
2018-06-08T13:51:42.017Z,104.03
2018-06-08T13:54:10.653Z,118.83
2018-06-08T13:56:39.483Z,131.30
2018-06-08T13:59:08.237Z,122.77
2018-06-08T14:01:37.164Z,145.73
2018-06-08T14:04:05.856Z,111.30
2018-06-08T14:06:34.493Z,97.03
2018-06-08T14:09:03.368Z,108.40
2018-06-08T14:11:32.211Z,111.63
2018-06-08T14:14:01.619Z,109.37
2018-06-08T14:16:30.513Z,96.53
2018-06-08T14:18:59.318Z,99.30
2018-06-08T14:21:27.951Z,89.57
2018-06-08T14:23:56.600Z,90.40
2018-06-08T14:26:25.417Z,76.17
2018-06-08T14:28:54.218Z,84.53
2018-06-08T14:31:22.775Z,92.27
2018-06-08T14:33:51.485Z,84.67
2018-06-08T14:36:20.584Z,80.17
2018-06-08T14:38:49.422Z,73.93
2018-06-08T14:41:18.255Z,86.83
2018-06-08T14:43:46.807Z,88.30
2018-06-08T14:46:15.485Z,71.90
2018-06-08T14:48:44.059Z,68.27
2018-06-08T14:51:12.929Z,71.47
2018-06-08T14:53:41.589Z,69.40
2018-06-08T14:56:11.305Z,72.13
2018-06-08T14:58:43.157Z,67.93
2018-06-08T15:01:13.772Z,68.83
2018-06-08T15:03:42.392Z,72.60
2018-06-08T15:06:10.937Z,78.23
2018-06-08T15:08:39.636Z,70.23
2018-06-08T15:11:08.426Z,68.43
2018-06-08T15:13:37.059Z,64.25
2018-06-08T15:16:05.708Z,63.17
2018-06-08T15:18:34.373Z,62.55
2018-06-08T15:21:02.892Z,61.58
2018-06-08T15:23:32.099Z,54.38
2018-06-08T15:26:01.270Z,58.45
2018-06-08T15:28:30.094Z,59.75
2018-06-08T15:30:59.218Z,56.60
2018-06-08T15:33:27.751Z,56.08
2018-06-08T15:35:56.402Z,57.65
2018-06-08T15:38:25.142Z,56.80
2018-06-08T15:40:53.728Z,51.53
2018-06-08T15:43:22.493Z,61.70
2018-06-08T15:45:51.111Z,50.73
2018-06-08T15:48:20.022Z,52.85
2018-06-08T15:50:49.043Z,49.85
2018-06-08T15:53:17.792Z,51.30
2018-06-08T15:55:46.454Z,46.40
2018-06-08T15:58:15.222Z,50.30
2018-06-08T16:00:43.963Z,46.92
2018-06-08T16:03:12.864Z,45.48
2018-06-08T16:05:41.710Z,43.78
2018-06-08T16:08:10.440Z,46.70
2018-06-08T16:10:39.197Z,47.50
2018-06-08T16:13:08.017Z,45.83
2018-06-08T16:15:36.978Z,46.95
2018-06-08T16:18:05.855Z,44.18
2018-06-08T16:20:34.756Z,46.53
2018-06-08T16:23:03.302Z,45.23
2018-06-08T16:25:31.927Z,43.35
2018-06-08T16:28:01.251Z,43.92
2018-06-08T16:30:30.270Z,42.80
2018-06-08T16:32:59.013Z,40.70
2018-06-08T16:35:27.725Z,41.45
2018-06-08T16:37:56.330Z,43.68
2018-06-08T16:40:25.110Z,44.73
2018-06-08T16:42:53.999Z,50.60
2018-06-08T16:45:23.050Z,46.85
2018-06-08T16:47:52.091Z,47.65
2018-06-08T16:50:20.718Z,46.68
2018-06-08T16:52:49.554Z,51.45
2018-06-08T16:55:18.547Z,53.70
2018-06-08T16:57:47.241Z,56.50
2018-06-08T17:00:16.205Z,55.80
2018-06-08T17:02:45.433Z,54.88
2018-06-08T17:05:14.297Z,57.70
2018-06-08T17:07:43.024Z,56.02
2018-06-08T17:10:11.866Z,54.05
2018-06-08T17:12:41.042Z,49.63
2018-06-08T17:15:09.809Z,47.30
2018-06-08T17:17:38.939Z,46.08
2018-06-08T17:20:07.672Z,48.87
2018-06-08T17:22:36.460Z,49.77
2018-06-08T17:25:05.212Z,52.58
2018-06-08T17:27:33.976Z,47.95
2018-06-08T17:30:02.882Z,46.50
2018-06-08T17:32:31.947Z,45.85
2018-06-08T17:35:00.979Z,48.45
2018-06-08T17:37:29.727Z,44.95
2018-06-08T17:39:58.614Z,47.83
2018-06-08T17:42:27.424Z,50.83
2018-06-08T17:44:56.422Z,48.38
2018-06-08T17:47:25.539Z,48.17
2018-06-08T17:49:54.576Z,45.80
2018-06-08T17:52:23.457Z,46.10
2018-06-08T17:54:52.421Z,43.93
2018-06-08T17:57:22.102Z,45.77
2018-06-08T17:59:50.978Z,45.60
2018-06-08T18:02:19.712Z,43.90
2018-06-08T18:04:48.744Z,45.30
2018-06-08T18:07:18.207Z,43.60
2018-06-08T18:09:47.303Z,44.53
2018-06-08T18:12:15.986Z,40.57
2018-06-08T18:14:44.972Z,42.87
2018-06-08T18:17:13.831Z,43.83
2018-06-08T18:19:42.580Z,46.67
2018-06-08T18:22:11.488Z,40.13
2018-06-08T18:24:40.558Z,42.10
2018-06-08T18:27:09.506Z,42.90
2018-06-08T18:29:38.251Z,43.97
2018-06-08T18:32:07.308Z,39.43
2018-06-08T18:34:36.269Z,44.60
2018-06-08T18:37:05.115Z,43.33
2018-06-08T18:39:33.865Z,43.07
2018-06-08T18:42:02.863Z,44.00
2018-06-08T18:44:31.967Z,44.10
2018-06-08T18:47:01.117Z,44.13
2018-06-08T18:49:29.459Z,44.67
2018-06-08T18:51:58.248Z,43.27
2018-06-08T18:54:26.945Z,44.93
2018-06-08T18:56:55.772Z,46.17
2018-06-08T18:59:24.939Z,45.00
2018-06-08T19:01:53.774Z,44.60
2018-06-08T19:04:22.531Z,45.17
2018-06-08T19:06:51.845Z,42.83
2018-06-08T19:09:20.829Z,55.57
2018-06-08T19:11:49.484Z,46.77
2018-06-08T19:14:18.179Z,49.40
2018-06-08T19:16:47.367Z,44.70
2018-06-08T19:19:16.164Z,44.67
2018-06-08T19:21:45.145Z,48.33
2018-06-08T19:24:14.119Z,46.57
2018-06-08T19:26:43.288Z,45.90
2018-06-08T19:29:12.137Z,45.53
2018-06-08T19:31:40.832Z,44.50
2018-06-08T19:34:09.700Z,39.57
2018-06-08T19:36:38.441Z,40.43
2018-06-08T19:39:09.174Z,41.47
2018-06-08T19:41:38.165Z,38.87
2018-06-08T19:44:06.867Z,45.17
2018-06-08T19:46:35.846Z,53.33
2018-06-08T19:49:04.831Z,46.10
2018-06-08T19:51:33.524Z,46.13
2018-06-08T19:54:02.330Z,49.20
2018-06-08T19:56:31.156Z,45.80
2018-06-08T19:59:00.068Z,47.97
2018-06-08T20:01:28.889Z,48.73
2018-06-08T20:03:57.761Z,51.93
2018-06-08T20:06:26.414Z,52.80
2018-06-08T20:08:55.311Z,60.87
2018-06-08T20:11:24.416Z,60.87
2018-06-08T20:13:53.071Z,58.63
2018-06-08T20:16:21.825Z,61.00
2018-06-08T20:18:50.646Z,60.47
2018-06-08T20:21:19.388Z,58.40
2018-06-08T20:23:48.265Z,55.27
2018-06-08T20:26:17.282Z,54.80
2018-06-08T20:28:46.005Z,55.83
2018-06-08T20:31:14.771Z,62.63
2018-06-08T20:33:43.398Z,53.07
2018-06-08T20:36:11.989Z,54.60
2018-06-08T20:38:40.908Z,56.30
2018-06-08T20:41:09.525Z,53.60
2018-06-08T20:43:38.339Z,59.90
2018-06-08T20:46:07.537Z,58.27
2018-06-08T20:48:36.464Z,60.90
2018-06-08T20:51:05.110Z,57.30
2018-06-08T20:53:34.674Z,58.10
2018-06-08T20:56:03.630Z,58.67
2018-06-08T20:58:32.744Z,60.90
2018-06-08T21:01:01.505Z,61.30
2018-06-08T21:03:30.433Z,60.30
2018-06-08T21:05:59.271Z,62.70
2018-06-08T21:08:28.157Z,59.43
2018-06-08T21:10:57.050Z,54.43
2018-06-08T21:13:25.746Z,50.17
2018-06-08T21:15:54.650Z,54.17
2018-06-08T21:18:24.138Z,51.60
2018-06-08T21:20:53.433Z,53.13
2018-06-08T21:23:22.112Z,54.17
2018-06-08T21:25:50.848Z,51.70
2018-06-08T21:28:19.613Z,55.87
2018-06-08T21:30:48.560Z,54.53
2018-06-08T21:33:17.330Z,53.63
2018-06-08T21:35:45.991Z,49.10
2018-06-08T21:38:14.827Z,50.73
2018-06-08T21:40:44.031Z,50.73
2018-06-08T21:43:12.872Z,49.17
2018-06-08T21:45:42.081Z,51.37
2018-06-08T21:48:10.930Z,49.03
2018-06-08T21:50:39.707Z,50.60
2018-06-08T21:53:08.441Z,51.70
2018-06-08T21:55:36.949Z,55.63
2018-06-08T21:58:05.683Z,47.40
2018-06-08T22:00:34.554Z,50.17
2018-06-08T22:03:03.081Z,49.83
2018-06-08T22:05:31.958Z,46.73
2018-06-08T22:08:00.734Z,51.17
2018-06-08T22:10:29.598Z,46.63
2018-06-08T22:12:58.238Z,52.17
2018-06-08T22:15:26.805Z,49.97
2018-06-08T22:17:55.385Z,54.43
2018-06-08T22:20:23.950Z,52.93
2018-06-08T22:22:53.106Z,53.47
2018-06-08T22:25:21.901Z,51.80
2018-06-08T22:27:50.774Z,60.60
2018-06-08T22:30:19.546Z,55.57
2018-06-08T22:32:51.814Z,55.93
2018-06-08T22:35:20.702Z,57.67
2018-06-08T22:37:49.519Z,55.10
2018-06-08T22:40:18.339Z,55.07
2018-06-08T22:42:47.111Z,58.87
2018-06-08T22:45:16.418Z,57.70
2018-06-08T22:47:45.181Z,56.93
2018-06-08T22:50:13.925Z,52.97
2018-06-08T22:52:42.686Z,53.03
2018-06-08T22:55:11.642Z,50.73
2018-06-08T22:57:40.330Z,46.10
2018-06-08T23:00:09.325Z,43.10
2018-06-08T23:02:37.967Z,43.73
2018-06-08T23:05:06.622Z,44.17
2018-06-08T23:07:35.173Z,49.47
2018-06-08T23:10:03.996Z,49.70
2018-06-08T23:12:33.058Z,47.97
2018-06-08T23:15:01.597Z,48.30
2018-06-08T23:17:30.157Z,52.00
2018-06-08T23:19:58.692Z,50.47
2018-06-08T23:22:27.346Z,53.27
2018-06-08T23:24:55.882Z,53.20
2018-06-08T23:27:24.557Z,54.90
2018-06-08T23:29:53.202Z,59.57
2018-06-08T23:32:21.810Z,58.00
2018-06-08T23:34:50.872Z,57.27
2018-06-08T23:37:19.589Z,59.53
2018-06-08T23:39:48.188Z,59.27
2018-06-08T23:42:16.816Z,52.80
2018-06-08T23:44:45.480Z,60.43
2018-06-08T23:47:14.077Z,59.30
2018-06-08T23:49:42.738Z,56.10
2018-06-08T23:52:11.534Z,55.63
2018-06-08T23:54:40.150Z,57.00
2018-06-08T23:57:09.186Z,49.30
2018-06-08T23:59:37.744Z,47.80
